Alexandria, LA (71306)

9:22 PM CDT on July 23, 2016 (GMT -0500)
RAWS | | Change Station

Elev 185 ft 31.18 °N, 92.63 °W | Updated 1 hour ago

Clear
Clear
91.0 °F
Feels Like 110 °F
N
0.0
Wind Variable Wind from North
Gusts 0.0 mph

Today
High -- | Low -- °F
--% Chance of Precip.
Yesterday
High -- | Low -- °F
Precip. -- in
Pressure 29.91 in
Visibility 10.0 miles
Clouds Clear
Heat Index 110 °F
Dew Point 80.0 °F
Humidity 71%
Rainfall in
Snow Depth Not available.
6:22 AM 8:11 PM
Waning Gibbous, 80% visible
METAR KAEX 240153Z 13003KT 10SM CLR 29/24 A2991 RMK AO2 SLP129 T02890244 $
Pressure 29.91 in
Visibility 10.0 miles
Clouds Clear
Heat Index 110 °F
Dew Point 80.0 °F
Humidity 71%
Rainfall in
Snow Depth Not available.
6:22 AM 8:11 PM
Waning Gibbous, 80% visible
METAR KAEX 240153Z 13003KT 10SM CLR 29/24 A2991 RMK AO2 SLP129 T02890244 $

10-Day Weather Forecast

Almanac

Astronomy

Jul. 23, 2016 Rise Set
Actual Time
Civil Twilight
Nautical Twilight
Astronomical Twilight
Moon
Length of Visible Light
Length of Day
Tomorrow will be .
, % of the Moon is Illuminated

Today's Extremes

State Highs State Lows

Community

WunderPhotos

Upload Photos

1,927,000 photos uploaded!

WunderBlog® & News

Nearby

Air Quality

  Air Quality AQ Index Pollutant
Not available.

Snow Depth

Station Depth Elevation

Earthquake Activity

City Distance Mag. Time & Date
Minimum magnitude displayed is 2.5.

Coastal Water Temperatures

Place Temperature

Stations

Nearby Weather Stations

Station Location Temp. Windchill Dew Point Humidity Wind Precip. Elev Updated Type
                   

Watches & Warnings

There are currently no watches in effect.